Time;durP1;ratioP1;P1;durP2;ratioP2;P2;SDS_P1;SDS_P2;PMS_P1;PMS_P2;Temp;Humidity;BMP_temperature;BMP_pressure;BME280_temperature;BME280_humidity;BME280_pressure;Samples;Min_cycle;Max_cycle;Signal;HPM_P1;HPM_P2
2022/07/22 00:02:17;;;;;;;5.10;1.50;;;;;;;;;;5087476;28;20039;-61
2022/07/22 00:04:44;;;;;;;6.03;1.92;;;;;;;;;;5087376;28;20112;-62
2022/07/22 00:07:10;;;;;;;1.85;0.95;;;;;;;;;;5087333;28;20023;-63
2022/07/22 00:09:37;;;;;;;2.58;1.33;;;;;;;;;;5087804;28;20028;-64
2022/07/22 00:12:04;;;;;;;5.00;2.10;;;;;;;;;;5091781;28;20475;-64
2022/07/22 00:14:31;;;;;;;2.72;1.55;;;;;;;;;;5091620;28;20024;-63
2022/07/22 00:16:57;;;;;;;10.25;1.85;;;;;;;;;;5092060;28;20101;-63
2022/07/22 00:19:24;;;;;;;5.15;1.52;;;;;;;;;;5092528;28;20024;-61
2022/07/22 00:21:51;;;;;;;6.93;1.75;;;;;;;;;;5092092;28;20398;-63
2022/07/22 00:24:18;;;;;;;2.80;1.15;;;;;;;;;;5086967;28;20056;-62
2022/07/22 00:26:45;;;;;;;6.53;2.13;;;;;;;;;;5087297;28;20047;-65
2022/07/22 00:29:12;;;;;;;3.60;1.70;;;;;;;;;;5087171;28;20086;-64
2022/07/22 00:31:38;;;;;;;2.97;1.50;;;;;;;;;;5087432;28;20027;-63
2022/07/22 00:34:05;;;;;;;5.00;2.10;;;;;;;;;;5091965;28;20028;-62
2022/07/22 00:36:32;;;;;;;4.18;1.55;;;;;;;;;;5092274;28;20344;-62
2022/07/22 00:38:59;;;;;;;2.65;1.17;;;;;;;;;;5092084;28;20034;-63
2022/07/22 00:41:25;;;;;;;4.03;1.38;;;;;;;;;;5092231;28;20028;-63
2022/07/22 00:43:58;;;;;;;4.15;1.77;;;;;;;;;;5091958;28;20032;-64
2022/07/22 00:46:25;;;;;;;6.63;2.25;;;;;;;;;;5087175;28;20024;-64
2022/07/22 00:48:51;;;;;;;8.13;1.75;;;;;;;;;;5087360;28;20111;-64
2022/07/22 00:51:19;;;;;;;13.75;1.95;;;;;;;;;;5086441;28;20497;-63
2022/07/22 00:53:46;;;;;;;2.70;1.27;;;;;;;;;;5086048;28;20024;-64
2022/07/22 00:56:13;;;;;;;3.97;1.75;;;;;;;;;;5091473;28;20032;-63
2022/07/22 00:58:41;;;;;;;4.20;1.83;;;;;;;;;;5091985;28;20035;-64
2022/07/22 01:01:08;;;;;;;4.53;2.15;;;;;;;;;;5092394;28;20375;-63
2022/07/22 01:03:35;;;;;;;6.25;1.75;;;;;;;;;;5092323;28;20040;-64
2022/07/22 01:06:02;;;;;;;23.17;2.22;;;;;;;;;;5093613;28;20028;-63
2022/07/22 01:08:29;;;;;;;3.30;1.70;;;;;;;;;;5087023;28;20077;-64
2022/07/22 01:11:06;;;;;;;6.72;2.35;;;;;;;;;;5087245;28;20017;-65
2022/07/22 01:13:33;;;;;;;9.98;2.00;;;;;;;;;;5078467;28;20554;-64
2022/07/22 01:15:59;;;;;;;9.70;2.85;;;;;;;;;;5071017;28;20125;-64
2022/07/22 01:18:26;;;;;;;8.90;3.60;;;;;;;;;;5074655;28;20032;-64
2022/07/22 01:20:53;;;;;;;4.77;2.43;;;;;;;;;;5076204;28;20063;-63
2022/07/22 01:23:19;;;;;;;8.38;2.80;;;;;;;;;;5095618;28;20031;-64
2022/07/22 01:25:46;;;;;;;14.70;3.10;;;;;;;;;;5096297;28;20027;-63
2022/07/22 01:28:13;;;;;;;3.63;1.90;;;;;;;;;;5096202;28;20032;-63
2022/07/22 01:30:39;;;;;;;4.43;2.27;;;;;;;;;;5092134;28;20097;-64
2022/07/22 01:33:06;;;;;;;19.70;2.57;;;;;;;;;;5090670;28;20386;-64
2022/07/22 01:35:33;;;;;;;5.67;2.30;;;;;;;;;;5090689;28;20024;-64
2022/07/22 01:37:59;;;;;;;6.77;2.60;;;;;;;;;;5090751;28;20035;-63
2022/07/22 01:40:26;;;;;;;7.43;1.93;;;;;;;;;;5093110;28;20105;-64
2022/07/22 01:42:53;;;;;;;3.90;2.13;;;;;;;;;;5095969;28;20028;-63
2022/07/22 01:45:20;;;;;;;3.47;1.80;;;;;;;;;;5096041;28;20027;-63
2022/07/22 01:47:46;;;;;;;7.70;1.67;;;;;;;;;;5095834;28;20107;-63
2022/07/22 01:50:13;;;;;;;7.63;2.47;;;;;;;;;;5095659;28;20020;-64
2022/07/22 01:52:40;;;;;;;5.37;2.77;;;;;;;;;;5092448;28;20024;-64
2022/07/22 01:55:07;;;;;;;5.80;2.67;;;;;;;;;;5090473;28;20028;-63
2022/07/22 01:57:34;;;;;;;9.30;3.10;;;;;;;;;;5090033;28;20032;-64
2022/07/22 02:00:01;;;;;;;4.40;2.33;;;;;;;;;;5090312;28;20421;-63
2022/07/22 02:02:27;;;;;;;5.47;2.60;;;;;;;;;;5092584;28;20395;-63
2022/07/22 02:04:54;;;;;;;11.27;2.97;;;;;;;;;;5095629;28;20107;-63
2022/07/22 02:07:21;;;;;;;10.63;3.07;;;;;;;;;;5095330;28;20020;-63
2022/07/22 02:09:47;;;;;;;6.33;2.20;;;;;;;;;;5095304;28;20082;-63
2022/07/22 02:12:14;;;;;;;8.20;2.60;;;;;;;;;;5095240;28;20028;-63
2022/07/22 02:14:41;;;;;;;4.53;2.47;;;;;;;;;;5092526;28;20020;-63
2022/07/22 02:17:07;;;;;;;5.43;2.20;;;;;;;;;;5090268;28;20036;-64
2022/07/22 02:19:34;;;;;;;8.93;2.27;;;;;;;;;;5089990;28;20024;-63
2022/07/22 02:22:00;;;;;;;8.90;2.20;;;;;;;;;;5090158;28;20028;-63
2022/07/22 02:24:27;;;;;;;6.20;2.73;;;;;;;;;;5090907;28;20099;-64
2022/07/22 02:26:54;;;;;;;9.57;2.17;;;;;;;;;;5094604;28;20028;-63
2022/07/22 02:29:22;;;;;;;7.37;2.07;;;;;;;;;;5095079;28;20067;-63
2022/07/22 02:31:48;;;;;;;6.37;1.80;;;;;;;;;;5094624;28;20020;-63
2022/07/22 02:34:15;;;;;;;5.17;2.33;;;;;;;;;;5095113;28;20028;-63
2022/07/22 02:36:42;;;;;;;10.00;4.03;;;;;;;;;;5093049;28;20020;-64
2022/07/22 02:39:08;;;;;;;10.67;2.57;;;;;;;;;;5089699;28;20024;-63
2022/07/22 02:41:35;;;;;;;6.77;2.23;;;;;;;;;;5088962;28;20397;-63
2022/07/22 02:44:02;;;;;;;5.70;2.00;;;;;;;;;;5089669;28;20028;-63
2022/07/22 02:46:28;;;;;;;3.87;2.00;;;;;;;;;;5090140;28;20503;-62
2022/07/22 02:48:55;;;;;;;2.60;1.63;;;;;;;;;;5093195;28;20479;-65
2022/07/22 02:51:22;;;;;;;7.53;2.57;;;;;;;;;;5094456;28;20039;-62
2022/07/22 02:53:48;;;;;;;7.60;2.50;;;;;;;;;;5094472;28;20149;-63
2022/07/22 02:56:15;;;;;;;4.80;2.20;;;;;;;;;;5094690;28;20028;-62
2022/07/22 02:58:42;;;;;;;8.57;2.23;;;;;;;;;;5093427;28;20073;-62
2022/07/22 03:01:09;;;;;;;3.20;1.80;;;;;;;;;;5089025;28;20028;-62
2022/07/22 03:03:36;;;;;;;7.27;2.17;;;;;;;;;;5088928;28;20024;-62
2022/07/22 03:06:02;;;;;;;3.17;1.70;;;;;;;;;;5089163;28;20467;-62
2022/07/22 03:08:29;;;;;;;20.93;3.43;;;;;;;;;;5089106;28;20063;-62
2022/07/22 03:10:56;;;;;;;2.13;1.53;;;;;;;;;;5094095;28;20085;-62
2022/07/22 03:13:22;;;;;;;5.93;2.43;;;;;;;;;;5094037;28;20027;-62
2022/07/22 03:15:49;;;;;;;17.00;1.93;;;;;;;;;;5093984;28;20024;-62
2022/07/22 03:18:16;;;;;;;2.90;1.70;;;;;;;;;;5093754;28;20073;-62
2022/07/22 03:20:42;;;;;;;2.57;1.43;;;;;;;;;;5093680;28;20047;-62
2022/07/22 03:23:09;;;;;;;10.60;3.13;;;;;;;;;;5088693;28;20028;-62
2022/07/22 03:25:35;;;;;;;12.17;2.33;;;;;;;;;;5088599;28;20045;-62
2022/07/22 03:28:02;;;;;;;8.07;1.90;;;;;;;;;;5088583;28;20490;-62
2022/07/22 03:30:29;;;;;;;3.07;1.77;;;;;;;;;;5088149;28;21563;-63
2022/07/22 03:32:55;;;;;;;4.73;2.10;;;;;;;;;;5093220;28;20104;-62
2022/07/22 03:35:22;;;;;;;4.73;2.37;;;;;;;;;;5093754;28;20035;-62
2022/07/22 03:37:49;;;;;;;5.67;2.20;;;;;;;;;;5093133;28;20028;-62
2022/07/22 03:40:16;;;;;;;4.40;1.97;;;;;;;;;;5093597;28;20027;-62
2022/07/22 03:42:43;;;;;;;15.90;2.03;;;;;;;;;;5092528;28;20028;-62
2022/07/22 03:45:10;;;;;;;5.57;1.87;;;;;;;;;;5088100;28;20099;-62
2022/07/22 03:47:37;;;;;;;4.90;2.37;;;;;;;;;;5087846;28;20020;-62
2022/07/22 03:50:04;;;;;;;5.40;1.80;;;;;;;;;;5087876;28;20437;-62
2022/07/22 03:52:31;;;;;;;7.97;1.80;;;;;;;;;;5087750;28;20475;-61
2022/07/22 03:54:57;;;;;;;2.93;1.63;;;;;;;;;;5092046;28;20471;-61
2022/07/22 03:57:24;;;;;;;3.27;2.03;;;;;;;;;;5093149;28;20028;-61
2022/07/22 03:59:51;;;;;;;3.40;2.07;;;;;;;;;;5092846;28;20024;-62
2022/07/22 04:02:19;;;;;;;7.00;2.43;;;;;;;;;;5093029;28;20386;-61
2022/07/22 04:04:45;;;;;;;2.37;1.37;;;;;;;;;;5093032;28;20077;-61
2022/07/22 04:07:12;;;;;;;3.00;1.90;;;;;;;;;;5088665;28;20028;-62
2022/07/22 04:09:39;;;;;;;5.83;1.80;;;;;;;;;;5087681;28;20034;-61
2022/07/22 04:12:05;;;;;;;10.53;2.67;;;;;;;;;;5087507;28;20056;-61
2022/07/22 04:14:32;;;;;;;3.50;1.73;;;;;;;;;;5087712;28;20035;-62
2022/07/22 04:16:59;;;;;;;10.13;2.70;;;;;;;;;;5090899;28;20020;-62
2022/07/22 04:19:25;;;;;;;5.87;2.37;;;;;;;;;;5093059;28;20031;-60
2022/07/22 04:21:52;;;;;;;6.43;2.43;;;;;;;;;;5092896;28;20360;-60
2022/07/22 04:24:19;;;;;;;4.70;2.33;;;;;;;;;;5092355;28;20478;-60
2022/07/22 04:26:45;;;;;;;4.37;1.83;;;;;;;;;;5092801;28;20348;-60
2022/07/22 04:29:12;;;;;;;6.43;2.40;;;;;;;;;;5088973;28;20032;-60
2022/07/22 04:31:39;;;;;;;7.83;1.60;;;;;;;;;;5087568;28;20046;-60
2022/07/22 04:34:05;;;;;;;1.87;1.43;;;;;;;;;;5086995;28;20499;-61
2022/07/22 04:36:32;;;;;;;5.67;1.73;;;;;;;;;;5087257;28;20493;-60
2022/07/22 04:38:58;;;;;;;3.50;1.60;;;;;;;;;;5090208;28;20381;-60
2022/07/22 04:41:25;;;;;;;7.60;3.00;;;;;;;;;;5092423;28;20391;-60
2022/07/22 04:43:52;;;;;;;11.23;2.50;;;;;;;;;;5092529;28;20149;-60
2022/07/22 04:46:18;;;;;;;4.37;1.90;;;;;;;;;;5092588;28;20020;-60
2022/07/22 04:48:45;;;;;;;6.10;2.50;;;;;;;;;;5091500;28;20114;-60
2022/07/22 04:51:12;;;;;;;6.53;2.57;;;;;;;;;;5088753;28;20039;-61
2022/07/22 04:53:38;;;;;;;4.20;2.47;;;;;;;;;;5087062;28;20107;-60
2022/07/22 04:56:05;;;;;;;2.43;1.40;;;;;;;;;;5086970;28;20077;-60
2022/07/22 04:58:32;;;;;;;22.57;2.40;;;;;;;;;;5086891;28;20016;-60
2022/07/22 05:00:58;;;;;;;5.07;1.60;;;;;;;;;;5089306;28;20024;-60
2022/07/22 05:03:25;;;;;;;4.33;1.87;;;;;;;;;;5092302;28;20028;-60
2022/07/22 05:05:52;;;;;;;13.90;2.07;;;;;;;;;;5091959;28;20032;-60
2022/07/22 05:08:19;;;;;;;2.90;1.70;;;;;;;;;;5091736;28;20032;-60
2022/07/22 05:10:45;;;;;;;10.40;1.93;;;;;;;;;;5092369;28;20441;-60
2022/07/22 05:13:13;;;;;;;1.87;1.33;;;;;;;;;;5089563;28;20471;-60
2022/07/22 05:15:40;;;;;;;4.67;2.13;;;;;;;;;;5086690;28;20048;-60
2022/07/22 05:18:07;;;;;;;4.30;1.47;;;;;;;;;;5086819;28;20020;-62
2022/07/22 05:20:33;;;;;;;2.33;1.43;;;;;;;;;;5086772;28;20475;-60
2022/07/22 05:23:00;;;;;;;14.13;2.03;;;;;;;;;;5088224;28;20028;-60
2022/07/22 05:25:27;;;;;;;7.97;1.23;;;;;;;;;;5091925;28;20039;-60
2022/07/22 05:27:54;;;;;;;5.43;2.23;;;;;;;;;;5092023;28;20020;-60
2022/07/22 05:30:21;;;;;;;4.43;1.60;;;;;;;;;;5092102;28;20016;-60
2022/07/22 05:32:48;;;;;;;3.10;1.77;;;;;;;;;;5092099;28;20020;-60
2022/07/22 05:35:15;;;;;;;3.77;1.63;;;;;;;;;;5090168;28;20481;-61
2022/07/22 05:37:41;;;;;;;7.43;1.77;;;;;;;;;;5086643;28;20502;-60
2022/07/22 05:40:08;;;;;;;13.40;2.20;;;;;;;;;;5086470;28;20679;-60
2022/07/22 05:42:35;;;;;;;2.77;1.73;;;;;;;;;;5086588;28;20085;-60
2022/07/22 05:45:02;;;;;;;4.63;1.80;;;;;;;;;;5087785;28;20044;-60
2022/07/22 05:47:28;;;;;;;9.53;1.67;;;;;;;;;;5092142;28;20371;-60
2022/07/22 05:49:55;;;;;;;2.73;1.70;;;;;;;;;;5091442;28;20177;-60
2022/07/22 05:52:22;;;;;;;2.83;1.50;;;;;;;;;;5091965;28;20028;-60
2022/07/22 05:54:48;;;;;;;5.33;2.50;;;;;;;;;;5091909;28;20103;-60
2022/07/22 05:57:15;;;;;;;3.77;1.70;;;;;;;;;;5090376;28;20029;-60
2022/07/22 05:59:42;;;;;;;10.03;2.47;;;;;;;;;;5086692;28;20024;-60
2022/07/22 06:02:08;;;;;;;3.53;1.80;;;;;;;;;;5090320;28;20024;-60
2022/07/22 06:04:35;;;;;;;4.30;1.40;;;;;;;;;;5090148;28;20030;-60
2022/07/22 06:07:02;;;;;;;2.87;1.60;;;;;;;;;;5089953;28;20068;-60
2022/07/22 06:09:29;;;;;;;10.30;2.20;;;;;;;;;;5095358;28;20060;-60
2022/07/22 06:11:55;;;;;;;8.97;2.30;;;;;;;;;;5095363;28;20360;-60
2022/07/22 06:14:22;;;;;;;3.87;1.63;;;;;;;;;;5095136;28;20368;-60
2022/07/22 06:16:49;;;;;;;3.43;1.93;;;;;;;;;;5095174;28;20024;-60
2022/07/22 06:19:15;;;;;;;5.13;2.77;;;;;;;;;;5094964;28;20020;-60
2022/07/22 06:21:42;;;;;;;5.30;2.90;;;;;;;;;;5089028;28;20099;-60
2022/07/22 06:24:09;;;;;;;6.57;3.43;;;;;;;;;;5089505;28;20032;-60
2022/07/22 06:26:35;;;;;;;3.37;2.10;;;;;;;;;;5089932;28;20375;-60
2022/07/22 06:29:02;;;;;;;7.40;3.07;;;;;;;;;;5089552;28;20417;-60
2022/07/22 06:31:28;;;;;;;6.43;2.67;;;;;;;;;;5095097;28;20024;-60
2022/07/22 06:33:55;;;;;;;5.00;2.70;;;;;;;;;;5094401;28;20379;-60
2022/07/22 06:36:22;;;;;;;3.80;2.10;;;;;;;;;;5094780;28;20036;-60
2022/07/22 06:38:48;;;;;;;5.10;2.63;;;;;;;;;;5094630;28;20028;-60
2022/07/22 06:41:19;;;;;;;4.30;2.07;;;;;;;;;;5094585;28;20032;-61
2022/07/22 06:43:46;;;;;;;3.97;2.30;;;;;;;;;;5089482;28;20039;-60
2022/07/22 06:46:12;;;;;;;8.03;2.33;;;;;;;;;;5089427;28;20024;-61
2022/07/22 06:48:39;;;;;;;5.07;1.70;;;;;;;;;;5088605;28;20051;-60
2022/07/22 06:51:06;;;;;;;5.33;2.13;;;;;;;;;;5089254;28;20028;-60
2022/07/22 06:53:33;;;;;;;7.47;2.40;;;;;;;;;;5093900;28;20028;-60
2022/07/22 06:55:59;;;;;;;3.40;2.07;;;;;;;;;;5094631;28;20051;-60
2022/07/22 06:58:26;;;;;;;5.47;2.50;;;;;;;;;;5094429;28;20375;-60
2022/07/22 07:00:53;;;;;;;6.83;2.87;;;;;;;;;;5094540;28;20418;-60
2022/07/22 07:03:20;;;;;;;7.37;3.37;;;;;;;;;;5094325;28;20024;-60
2022/07/22 07:05:46;;;;;;;5.80;2.47;;;;;;;;;;5088454;28;20085;-60
2022/07/22 07:08:13;;;;;;;20.90;3.37;;;;;;;;;;5089045;28;20020;-60
2022/07/22 07:10:39;;;;;;;4.83;2.77;;;;;;;;;;5088788;28;20060;-60
2022/07/22 07:13:06;;;;;;;6.20;3.10;;;;;;;;;;5087980;28;20020;-60
2022/07/22 07:15:33;;;;;;;7.97;3.37;;;;;;;;;;5092855;28;20111;-60
2022/07/22 07:18:00;;;;;;;6.20;2.83;;;;;;;;;;5094154;28;20020;-60
2022/07/22 07:20:26;;;;;;;12.00;4.00;;;;;;;;;;5093982;28;20022;-60
2022/07/22 07:22:54;;;;;;;6.00;2.77;;;;;;;;;;5093641;28;20031;-60
2022/07/22 07:25:20;;;;;;;12.63;4.17;;;;;;;;;;5094060;28;20024;-59
2022/07/22 07:27:47;;;;;;;8.87;2.97;;;;;;;;;;5089616;28;20058;-60
2022/07/22 07:30:14;;;;;;;22.03;2.77;;;;;;;;;;5088543;28;20364;-60
2022/07/22 07:32:40;;;;;;;19.73;2.37;;;;;;;;;;5088205;28;20036;-60
2022/07/22 07:35:08;;;;;;;2.63;1.70;;;;;;;;;;5088634;28;20297;-60
2022/07/22 07:37:34;;;;;;;1.83;1.50;;;;;;;;;;5091554;28;20067;-59
2022/07/22 07:40:01;;;;;;;4.77;2.07;;;;;;;;;;5093402;28;20072;-60
2022/07/22 07:42:28;;;;;;;5.00;2.60;;;;;;;;;;5093439;28;20032;-59
2022/07/22 07:44:56;;;;;;;3.33;1.87;;;;;;;;;;5093610;28;20597;-60
2022/07/22 07:47:22;;;;;;;7.70;2.43;;;;;;;;;;5093521;28;20387;-60
2022/07/22 07:49:50;;;;;;;7.07;2.07;;;;;;;;;;5089491;28;20032;-60
2022/07/22 07:52:17;;;;;;;5.83;2.37;;;;;;;;;;5087769;28;20077;-60
2022/07/22 07:54:44;;;;;;;7.23;2.67;;;;;;;;;;5087368;28;20032;-60
2022/07/22 07:57:11;;;;;;;5.73;2.93;;;;;;;;;;5088104;28;20166;-60
2022/07/22 07:59:38;;;;;;;11.17;2.77;;;;;;;;;;5090797;28;20032;-60
2022/07/22 08:02:05;;;;;;;5.20;2.40;;;;;;;;;;5093203;28;20027;-59
2022/07/22 08:04:32;;;;;;;4.90;2.20;;;;;;;;;;5093248;28;20047;-60
2022/07/22 08:06:58;;;;;;;9.20;2.70;;;;;;;;;;5093036;28;20027;-59
2022/07/22 08:09:25;;;;;;;3.57;1.93;;;;;;;;;;5092507;28;20032;-60
2022/07/22 08:11:52;;;;;;;4.67;2.63;;;;;;;;;;5089622;28;20024;-60
2022/07/22 08:14:19;;;;;;;3.87;1.90;;;;;;;;;;5087702;28;20146;-60
2022/07/22 08:16:45;;;;;;;6.37;2.87;;;;;;;;;;5087767;28;20382;-60
2022/07/22 08:19:12;;;;;;;3.07;2.07;;;;;;;;;;5087523;28;20081;-59
2022/07/22 08:21:41;;;;;;;6.40;2.13;;;;;;;;;;5089900;28;20027;-60
2022/07/22 08:24:09;;;;;;;4.87;2.63;;;;;;;;;;5092411;28;20467;-59
2022/07/22 08:26:36;;;;;;;5.37;2.50;;;;;;;;;;5092526;28;20487;-59
2022/07/22 08:29:03;;;;;;;5.87;2.27;;;;;;;;;;5092561;28;20036;-59
2022/07/22 08:31:34;;;;;;;7.63;2.50;;;;;;;;;;5092784;28;20538;-59
2022/07/22 08:34:01;;;;;;;4.23;2.30;;;;;;;;;;5089505;28;21613;-59
2022/07/22 08:36:28;;;;;;;4.00;1.90;;;;;;;;;;5087412;28;20110;-59
2022/07/22 08:38:55;;;;;;;3.33;1.80;;;;;;;;;;5087281;28;20024;-59
2022/07/22 08:41:22;;;;;;;13.83;2.27;;;;;;;;;;5086770;28;20119;-60
2022/07/22 08:43:49;;;;;;;3.90;1.90;;;;;;;;;;5089092;28;20386;-59
2022/07/22 08:46:16;;;;;;;5.33;2.77;;;;;;;;;;5092518;28;20020;-59
2022/07/22 08:48:43;;;;;;;14.00;2.50;;;;;;;;;;5092449;28;20483;-59
2022/07/22 08:51:09;;;;;;;9.50;3.03;;;;;;;;;;5091751;28;20027;-59
2022/07/22 08:53:36;;;;;;;5.70;2.30;;;;;;;;;;5092513;28;20016;-59
2022/07/22 08:56:03;;;;;;;4.57;1.53;;;;;;;;;;5090403;28;20035;-60
2022/07/22 08:58:31;;;;;;;2.63;1.80;;;;;;;;;;5086741;28;20028;-59
2022/07/22 09:01:11;;;;;;;5.90;2.23;;;;;;;;;;5087054;28;20433;-59
2022/07/22 09:03:56;;;;;;;2.83;1.80;;;;;;;;;;5086753;28;20390;-59
2022/07/22 09:06:25;;;;;;;5.70;2.37;;;;;;;;;;5089735;28;20027;-59
2022/07/22 09:08:59;;;;;;;5.30;2.70;;;;;;;;;;5092099;28;20039;-59
2022/07/22 09:11:28;;;;;;;5.55;2.88;;;;;;;;;;5092307;28;20028;-59
2022/07/22 09:13:55;;;;;;;7.47;2.20;;;;;;;;;;5092142;28;20035;-59
2022/07/22 09:16:40;;;;;;;4.60;2.13;;;;;;;;;;5091996;28;20027;-59
2022/07/22 09:19:07;;;;;;;2.10;1.65;;;;;;;;;;5087319;28;20044;-59
2022/07/22 09:21:37;;;;;;;3.93;2.27;;;;;;;;;;5086547;28;20130;-60
2022/07/22 09:24:05;;;;;;;3.50;1.67;;;;;;;;;;5086793;28;20024;-59
2022/07/22 09:26:31;;;;;;;4.57;2.63;;;;;;;;;;5086947;28;20028;-59
2022/07/22 09:28:58;;;;;;;2.97;2.00;;;;;;;;;;5090058;28;20540;-59
2022/07/22 09:31:30;;;;;;;5.17;2.33;;;;;;;;;;5092199;28;20051;-59
2022/07/22 09:33:57;;;;;;;6.63;3.20;;;;;;;;;;5091927;28;20111;-59
2022/07/22 09:36:24;;;;;;;3.47;1.93;;;;;;;;;;5094887;28;20105;-59
2022/07/22 09:38:51;;;;;;;2.90;1.93;;;;;;;;;;5096135;28;20024;-59
2022/07/22 09:41:17;;;;;;;17.27;3.20;;;;;;;;;;5091987;28;20032;-59
2022/07/22 09:43:44;;;;;;;4.20;2.37;;;;;;;;;;5090579;28;20036;-59
2022/07/22 09:46:11;;;;;;;3.30;2.40;;;;;;;;;;5090518;28;20024;-59
2022/07/22 09:48:38;;;;;;;5.60;2.87;;;;;;;;;;5089817;28;20024;-60
2022/07/22 09:51:06;;;;;;;3.40;2.50;;;;;;;;;;5093208;28;20028;-59
2022/07/22 09:53:33;;;;;;;5.17;2.73;;;;;;;;;;5095703;28;20043;-59
2022/07/22 09:56:00;;;;;;;4.47;2.80;;;;;;;;;;5095740;28;20016;-59
2022/07/22 09:58:27;;;;;;;3.37;1.87;;;;;;;;;;5095416;28;20028;-59
2022/07/22 10:00:55;;;;;;;2.30;1.70;;;;;;;;;;5095568;28;20088;-59
2022/07/22 10:03:26;;;;;;;7.47;2.87;;;;;;;;;;5091934;28;20024;-59
2022/07/22 10:05:54;;;;;;;17.47;3.50;;;;;;;;;;5090113;28;20020;-59
2022/07/22 10:08:21;;;;;;;3.10;2.20;;;;;;;;;;5089674;28;20440;-59
2022/07/22 10:10:48;;;;;;;3.03;2.23;;;;;;;;;;5090193;28;20070;-59
2022/07/22 10:13:15;;;;;;;4.47;2.17;;;;;;;;;;5092762;28;20028;-59
2022/07/22 10:15:42;;;;;;;4.43;2.67;;;;;;;;;;5095449;28;20040;-59
2022/07/22 10:18:14;;;;;;;3.73;2.43;;;;;;;;;;5095175;28;20020;-59
2022/07/22 10:20:40;;;;;;;4.00;2.33;;;;;;;;;;5095262;28;20028;-59
2022/07/22 10:23:08;;;;;;;7.70;2.03;;;;;;;;;;5094809;28;20035;-59
2022/07/22 10:25:54;;;;;;;6.17;2.23;;;;;;;;;;5092056;28;20094;-59
2022/07/22 10:28:23;;;;;;;3.43;2.37;;;;;;;;;;5089651;28;20092;-59
2022/07/22 10:30:49;;;;;;;7.10;2.70;;;;;;;;;;5089210;28;20032;-59
2022/07/22 10:33:19;;;;;;;4.83;2.70;;;;;;;;;;5089743;28;20158;-59
2022/07/22 10:35:59;;;;;;;5.07;2.20;;;;;;;;;;5092908;28;20027;-59
2022/07/22 10:38:27;;;;;;;5.37;2.47;;;;;;;;;;5094663;28;20012;-59
2022/07/22 10:40:54;;;;;;;10.53;2.23;;;;;;;;;;5094669;28;20040;-59
2022/07/22 10:43:24;;;;;;;4.30;2.50;;;;;;;;;;5094186;28;20032;-59
2022/07/22 10:45:54;;;;;;;8.57;2.17;;;;;;;;;;5094600;28;20126;-59
2022/07/22 10:48:30;;;;;;;3.00;1.93;;;;;;;;;;5089980;28;20024;-59
2022/07/22 10:51:25;;;;;;;4.00;2.13;;;;;;;;;;5089303;28;20051;-60
2022/07/22 10:53:59;;;;;;;2.07;1.50;;;;;;;;;;5081120;28;20039;-59
2022/07/22 10:56:30;;;;;;;3.38;2.20;;;;;;;;;;5088998;28;20032;-59
2022/07/22 10:58:57;;;;;;;5.23;2.33;;;;;;;;;;5094189;28;20479;-59
2022/07/22 11:01:25;;;;;;;20.00;2.90;;;;;;;;;;5094351;28;20040;-59
2022/07/22 11:03:52;;;;;;;6.70;2.60;;;;;;;;;;5094431;28;20023;-59
2022/07/22 11:06:26;;;;;;;3.83;2.17;;;;;;;;;;5094158;28;20028;-59
2022/07/22 11:08:58;;;;;;;9.55;2.17;;;;;;;;;;5093278;28;20042;-59
2022/07/22 11:11:40;;;;;;;4.63;2.17;;;;;;;;;;5088309;28;20035;-59
2022/07/22 11:14:19;;;;;;;5.10;2.80;;;;;;;;;;5088733;28;20036;-59
2022/07/22 11:16:46;;;;;;;2.27;1.50;;;;;;;;;;5089096;28;20428;-59
2022/07/22 11:19:13;;;;;;;10.63;3.10;;;;;;;;;;5089822;28;20027;-59
2022/07/22 11:21:40;;;;;;;2.83;1.90;;;;;;;;;;5094108;28;20047;-59
2022/07/22 11:24:08;;;;;;;14.43;3.10;;;;;;;;;;5093983;28;20024;-59
2022/07/22 11:26:44;;;;;;;3.00;2.27;;;;;;;;;;5093587;28;20028;-61
2022/07/22 11:29:11;;;;;;;4.60;2.03;;;;;;;;;;5093788;28;20040;-59
2022/07/22 11:31:39;;;;;;;4.47;2.80;;;;;;;;;;5091904;28;20474;-60
2022/07/22 11:34:15;;;;;;;5.30;2.77;;;;;;;;;;5088537;28;20027;-59
2022/07/22 11:36:43;;;;;;;5.50;2.47;;;;;;;;;;5088057;28;20099;-59
2022/07/22 11:39:11;;;;;;;2.93;1.90;;;;;;;;;;5088358;28;20573;-60
2022/07/22 11:41:38;;;;;;;4.80;2.23;;;;;;;;;;5089785;28;20482;-59
2022/07/22 11:44:05;;;;;;;3.27;2.27;;;;;;;;;;5093396;28;20040;-59
2022/07/22 11:46:36;;;;;;;3.80;2.03;;;;;;;;;;5093490;28;20425;-59
2022/07/22 11:49:03;;;;;;;6.93;2.70;;;;;;;;;;5093222;28;20145;-60
2022/07/22 11:51:31;;;;;;;5.40;2.50;;;;;;;;;;5093300;28;20035;-59
2022/07/22 11:53:58;;;;;;;3.93;2.10;;;;;;;;;;5091471;28;20020;-59
2022/07/22 11:56:25;;;;;;;4.87;2.57;;;;;;;;;;5088341;28;20038;-59
2022/07/22 11:58:56;;;;;;;6.53;2.57;;;;;;;;;;5087383;28;20056;-59
2022/07/22 12:01:27;;;;;;;4.90;2.37;;;;;;;;;;5067570;28;20035;-59
2022/07/22 12:04:04;;;;;;;8.73;2.60;;;;;;;;;;5069238;28;20082;-59
2022/07/22 12:06:34;;;;;;;7.77;3.53;;;;;;;;;;5072598;28;20160;-59
2022/07/22 12:09:05;;;;;;;1.93;1.30;;;;;;;;;;5072635;28;20050;-59
2022/07/22 12:11:32;;;;;;;6.10;2.47;;;;;;;;;;5072723;28;20074;-59
2022/07/22 12:14:05;;;;;;;3.67;2.20;;;;;;;;;;5073026;28;20025;-58
2022/07/22 12:16:32;;;;;;;3.17;1.93;;;;;;;;;;5083001;28;20096;-59
2022/07/22 12:19:03;;;;;;;4.03;2.40;;;;;;;;;;5087762;28;20032;-59
2022/07/22 12:21:31;;;;;;;6.73;2.87;;;;;;;;;;5087613;28;20482;-59
2022/07/22 12:24:09;;;;;;;3.47;2.10;;;;;;;;;;5087521;28;20035;-59
2022/07/22 12:26:39;;;;;;;6.57;3.13;;;;;;;;;;5089987;28;20032;-58
2022/07/22 12:29:35;;;;;;;4.17;2.77;;;;;;;;;;5092457;28;20044;-59
2022/07/22 12:32:04;;;;;;;4.60;2.73;;;;;;;;;;5074587;28;20036;-59
2022/07/22 12:34:38;;;;;;;2.80;2.23;;;;;;;;;;5092705;28;20036;-59
2022/07/22 12:37:15;;;;;;;7.10;2.23;;;;;;;;;;5092246;28;20035;-59
2022/07/22 12:40:00;;;;;;;6.17;2.83;;;;;;;;;;5087758;28;20028;-59
2022/07/22 12:42:29;;;;;;;5.13;2.58;;;;;;;;;;5087256;28;20026;-59
2022/07/22 12:45:12;;;;;;;4.63;3.40;;;;;;;;;;5087204;28;20042;-59
2022/07/22 12:48:10;;;;;;;3.90;2.53;;;;;;;;;;5086698;28;20451;-59
2022/07/22 12:50:41;;;;;;;4.63;2.37;;;;;;;;;;5092404;28;20032;-59
2022/07/22 12:53:09;;;;;;;3.37;2.40;;;;;;;;;;5092495;28;20105;-59
2022/07/22 12:55:38;;;;;;;8.67;3.93;;;;;;;;;;5092498;28;20032;-59
2022/07/22 12:58:05;;;;;;;6.70;3.20;;;;;;;;;;5092387;28;20030;-59
2022/07/22 13:00:35;;;;;;;6.77;3.57;;;;;;;;;;5090661;28;20070;-60
2022/07/22 13:03:02;;;;;;;8.73;2.90;;;;;;;;;;5066867;28;20104;-59
2022/07/22 13:05:29;;;;;;;14.30;4.03;;;;;;;;;;5066499;28;20095;-59
2022/07/22 13:07:56;;;;;;;5.73;3.57;;;;;;;;;;5066792;28;20032;-60
2022/07/22 13:10:23;;;;;;;6.17;3.40;;;;;;;;;;5069394;28;20040;-59
2022/07/22 13:12:50;;;;;;;8.53;3.33;;;;;;;;;;5076390;28;20475;-59
2022/07/22 13:15:17;;;;;;;4.37;2.87;;;;;;;;;;5076178;28;20020;-59
2022/07/22 13:17:44;;;;;;;5.07;3.07;;;;;;;;;;5084675;28;20487;-59
2022/07/22 13:20:12;;;;;;;6.20;3.27;;;;;;;;;;5096471;28;20020;-59
2022/07/22 13:22:39;;;;;;;12.23;3.53;;;;;;;;;;5094327;28;20373;-59
2022/07/22 13:25:06;;;;;;;9.03;4.60;;;;;;;;;;5090879;28;20028;-59
2022/07/22 13:27:33;;;;;;;6.03;3.53;;;;;;;;;;5090921;28;20083;-60
2022/07/22 13:30:00;;;;;;;10.37;4.23;;;;;;;;;;5090838;28;20039;-59
2022/07/22 13:32:26;;;;;;;10.60;3.60;;;;;;;;;;5091110;28;20035;-60
2022/07/22 13:34:53;;;;;;;5.80;3.90;;;;;;;;;;5095961;28;20085;-60
2022/07/22 13:37:21;;;;;;;10.83;3.53;;;;;;;;;;5094122;28;20107;-60
2022/07/22 13:39:48;;;;;;;6.53;3.33;;;;;;;;;;5094842;28;20479;-60
2022/07/22 13:42:19;;;;;;;6.83;3.23;;;;;;;;;;5095760;28;20028;-59
2022/07/22 13:44:50;;;;;;;5.27;3.40;;;;;;;;;;5094420;28;20055;-59
2022/07/22 13:47:18;;;;;;;13.40;3.93;;;;;;;;;;5090485;28;20077;-60
2022/07/22 13:49:46;;;;;;;8.97;3.97;;;;;;;;;;5090287;28;20034;-59
2022/07/22 13:52:13;;;;;;;8.20;3.27;;;;;;;;;;5089962;28;20024;-60
2022/07/22 13:54:40;;;;;;;9.37;3.93;;;;;;;;;;5090107;28;20031;-60
2022/07/22 13:57:06;;;;;;;9.17;3.50;;;;;;;;;;5095698;28;20093;-60
2022/07/22 13:59:33;;;;;;;6.67;3.43;;;;;;;;;;5095576;28;20016;-61
2022/07/22 14:02:01;;;;;;;12.33;4.00;;;;;;;;;;5095101;28;20024;-59
2022/07/22 14:04:28;;;;;;;5.87;3.40;;;;;;;;;;5095372;28;20421;-60
2022/07/22 14:06:54;;;;;;;9.10;3.83;;;;;;;;;;5094313;28;20074;-60
2022/07/22 14:09:21;;;;;;;4.67;2.53;;;;;;;;;;5089843;28;20104;-60
2022/07/22 14:11:48;;;;;;;9.30;3.43;;;;;;;;;;5089750;28;20047;-61
2022/07/22 14:14:14;;;;;;;8.40;3.53;;;;;;;;;;5089486;28;20028;-60
2022/07/22 14:16:41;;;;;;;9.93;4.00;;;;;;;;;;5089378;28;20031;-59
2022/07/22 14:19:09;;;;;;;10.53;4.80;;;;;;;;;;5095243;28;20397;-59
2022/07/22 14:21:36;;;;;;;5.93;2.90;;;;;;;;;;5094676;28;20058;-60
2022/07/22 14:24:04;;;;;;;8.27;4.00;;;;;;;;;;5094624;28;20028;-59
2022/07/22 14:26:30;;;;;;;12.00;3.63;;;;;;;;;;5095322;28;20095;-61
2022/07/22 14:28:57;;;;;;;6.47;3.50;;;;;;;;;;5094988;28;20028;-60
2022/07/22 14:31:24;;;;;;;8.37;4.33;;;;;;;;;;5088530;28;20055;-60
2022/07/22 14:33:51;;;;;;;15.60;4.20;;;;;;;;;;5089387;28;20027;-60
2022/07/22 14:36:17;;;;;;;5.73;2.57;;;;;;;;;;5089679;28;20429;-60
2022/07/22 14:38:44;;;;;;;11.93;3.43;;;;;;;;;;5088937;28;20020;-60
2022/07/22 14:41:11;;;;;;;3.33;2.23;;;;;;;;;;5094123;28;20078;-60
2022/07/22 14:43:38;;;;;;;5.53;3.03;;;;;;;;;;5094392;28;20036;-60
2022/07/22 14:46:06;;;;;;;9.73;3.17;;;;;;;;;;5094676;28;20039;-60